Time;durP1;ratioP1;P1;durP2;ratioP2;P2;SDS_P1;SDS_P2;PMS_P1;PMS_P2;Temp;Humidity;BMP_temperature;BMP_pressure;BME280_temperature;BME280_humidity;BME280_pressure;Samples;Min_cycle;Max_cycle;Signal;HPM_P1;HPM_P2
2022/06/13 00:01:13;;;;;;;6.13;2.97;;;13.70;99.90;;;;;;5078460;28;20059;-69
2022/06/13 00:03:39;;;;;;;;;;;13.60;99.90;;;;;;5075662;28;20037;-71
2022/06/13 00:06:05;;;;;;;8.38;3.00;;;13.60;99.90;;;;;;5077219;28;19916;-71
2022/06/13 00:08:30;;;;;;;9.68;2.95;;;13.50;99.90;;;;;;5077153;28;20032;-70
2022/06/13 00:10:56;;;;;;;6.97;2.45;;;13.50;99.90;;;;;;5059257;28;20528;-70
2022/06/13 00:13:21;;;;;;;5.57;2.75;;;13.50;99.90;;;;;;5077106;28;20040;-71
2022/06/13 00:15:47;;;;;;;11.50;2.50;;;13.50;99.90;;;;;;5059438;28;20123;-71
2022/06/13 00:18:12;;;;;;;5.45;2.13;;;13.30;99.90;;;;;;5076400;28;20484;-70
2022/06/13 00:20:38;;;;;;;9.13;3.05;;;13.30;99.90;;;;;;5075322;28;20048;-70
2022/06/13 00:23:04;;;;;;;9.07;2.85;;;13.30;99.90;;;;;;5059140;28;20437;-70
2022/06/13 00:25:30;;;;;;;10.73;3.42;;;13.20;99.90;;;;;;5059282;28;20080;-70
2022/06/13 00:27:56;;;;;;;8.50;2.90;;;13.20;99.90;;;;;;5059323;28;20078;-70
2022/06/13 00:30:24;;;;;;;8.13;3.28;;;13.10;99.90;;;;;;5076768;28;20074;-70
2022/06/13 00:32:50;;;;;;;12.43;2.50;;;13.10;99.90;;;;;;5059023;28;20054;-71
2022/06/13 00:35:16;;;;;;;7.93;3.25;;;13.30;99.90;;;;;;5069986;28;20424;-69
2022/06/13 00:37:42;;;;;;;6.60;3.30;;;13.10;99.90;;;;;;5046406;28;20519;-69
2022/06/13 00:40:08;;;;;;;7.10;2.92;;;13.10;99.90;;;;;;5076492;28;20036;-70
2022/06/13 00:42:34;;;;;;;8.73;3.47;;;12.70;99.90;;;;;;5059044;28;20052;-72
2022/06/13 00:45:12;;;;;;;8.52;2.92;;;13.00;99.90;;;;;;5058886;28;20135;-71
2022/06/13 00:47:42;;;;;;;8.15;3.70;;;13.10;99.90;;;;;;5041887;28;20052;-71
2022/06/13 00:50:17;;;;;;;8.82;3.63;;;13.10;99.90;;;;;;5077316;28;20124;-70
2022/06/13 00:52:48;;;;;;;9.23;2.30;;;13.10;99.90;;;;;;5058732;28;20460;-70
2022/06/13 00:55:29;;;;;;;9.88;2.97;;;13.10;99.90;;;;;;5058018;28;20057;-72
2022/06/13 00:57:56;;;;;;;4.35;2.30;;;13.10;99.90;;;;;;5076107;28;20036;-70
2022/06/13 01:00:22;;;;;;;10.57;3.05;;;13.20;99.90;;;;;;5075994;28;20057;-70
2022/06/13 01:02:50;;;;;;;11.18;2.85;;;13.20;99.90;;;;;;5058242;28;20040;-71
2022/06/13 01:05:26;;;;;;;10.07;2.92;;;13.30;99.90;;;;;;5076050;28;20032;-70
2022/06/13 01:07:58;;;;;;;10.75;3.00;;;13.20;99.90;;;;;;5058161;28;20082;-70
2022/06/13 01:13:12;;;;;;;10.68;3.00;;;13.20;99.90;;;;;;5058119;28;20088;-71
2022/06/13 01:16:00;;;;;;;14.68;5.57;;;13.30;99.90;;;;;;5058201;28;20048;-70
2022/06/13 01:18:41;;;;;;;8.65;2.80;;;13.30;99.90;;;;;;5049390;28;20044;-71
2022/06/13 01:21:27;;;;;;;7.30;2.55;;;13.40;99.90;;;;;;5077798;28;20048;-69
2022/06/13 01:24:22;;;;;;;10.38;3.13;;;13.40;99.90;;;;;;5096020;28;20425;-69
2022/06/13 01:27:01;;;;;;;9.77;2.53;;;13.40;99.90;;;;;;5077745;28;20055;-71
2022/06/13 01:29:44;;;;;;;8.95;2.63;;;13.40;99.90;;;;;;5077917;28;20452;-70
2022/06/13 01:32:19;;;;;;;5.53;2.20;;;13.40;99.90;;;;;;5062465;28;20045;-71
2022/06/13 01:34:48;;;;;;;11.85;2.53;;;13.40;99.90;;;;;;5075463;28;20040;-71
2022/06/13 01:37:42;;;;;;;10.68;3.05;;;13.20;99.90;;;;;;5075596;28;20506;-70
2022/06/13 01:40:43;;;;;;;7.55;3.58;;;13.20;99.90;;;;;;5075262;28;20044;-70
2022/06/13 01:43:28;;;;;;;10.63;2.70;;;13.10;99.90;;;;;;5074163;28;20055;-70
2022/06/13 01:46:18;;;;;;;13.00;4.13;;;13.10;99.90;;;;;;5048158;28;20036;-68
2022/06/13 01:49:09;;;;;;;11.43;2.60;;;13.00;99.90;;;;;;5064352;28;20526;-70
2022/06/13 01:51:51;;;;;;;12.65;3.55;;;13.10;99.90;;;;;;5057130;28;20054;-70
2022/06/13 01:54:28;;;;;;;9.35;3.90;;;13.00;99.90;;;;;;5057175;28;20045;-71
2022/06/13 01:57:21;;;;;;;7.18;3.13;;;13.00;99.90;;;;;;5057302;28;20052;-70
2022/06/13 02:00:09;;;;;;;11.82;4.18;;;13.00;99.90;;;;;;5057526;28;20107;-70
2022/06/13 02:02:53;;;;;;;8.95;3.03;;;13.00;99.90;;;;;;5074870;28;20040;-71
2022/06/13 02:05:31;;;;;;;;;;;13.10;99.90;;;;;;5057662;28;20457;-70
2022/06/13 02:08:03;;;;;;;15.65;4.60;;;13.10;99.90;;;;;;5057493;28;20245;-69
2022/06/13 02:10:35;;;;;;;9.63;2.58;;;13.10;99.90;;;;;;5074489;28;20106;-71
2022/06/13 02:13:06;;;;;;;9.27;3.15;;;13.10;99.90;;;;;;5057576;28;20040;-69
2022/06/13 02:15:46;;;;;;;7.35;2.70;;;13.20;99.90;;;;;;5039639;28;20106;-70
2022/06/13 02:18:43;;;;;;;6.78;3.13;;;13.20;99.90;;;;;;5057134;28;20055;-71
2022/06/13 02:21:12;;;;;;;8.63;4.30;;;13.20;99.90;;;;;;5043140;28;20107;-70
2022/06/13 02:23:45;;;;;;;8.57;3.63;;;13.20;99.90;;;;;;5056770;28;20092;-71
2022/06/13 02:26:21;;;;;;;;;;;13.30;99.90;;;;;;5073478;28;20068;-71
2022/06/13 02:29:26;;;;;;;9.93;2.90;;;13.30;99.90;;;;;;5074867;28;19927;-72
2022/06/13 02:32:08;;;;;;;10.23;3.67;;;13.30;99.90;;;;;;5013229;28;20096;-70
2022/06/13 02:34:46;;;;;;;11.55;3.55;;;13.30;99.90;;;;;;5065188;28;20087;-70
2022/06/13 02:37:37;;;;;;;8.57;3.15;;;13.30;99.90;;;;;;5074696;28;20094;-70
2022/06/13 02:40:14;;;;;;;14.77;4.22;;;13.40;99.90;;;;;;5056174;28;20177;-71
2022/06/13 02:42:48;;;;;;;9.18;2.80;;;13.40;99.90;;;;;;5074721;28;20041;-71
2022/06/13 02:45:25;;;;;;;12.77;4.18;;;13.50;99.90;;;;;;5074343;28;20111;-70
2022/06/13 02:48:08;;;;;;;12.93;3.15;;;13.50;99.90;;;;;;5056550;28;20032;-69
2022/06/13 02:50:56;;;;;;;17.00;3.92;;;13.50;99.90;;;;;;5073005;28;20048;-69
2022/06/13 02:53:47;;;;;;;10.70;4.95;;;13.80;99.90;;;;;;5076805;28;20068;-70
2022/06/13 02:56:30;;;;;;;14.20;3.40;;;13.60;99.90;;;;;;5076924;28;20337;-69
2022/06/13 02:59:31;;;;;;;14.43;3.65;;;13.60;99.90;;;;;;5059736;28;20248;-70
2022/06/13 03:02:00;;;;;;;10.95;2.95;;;13.60;99.90;;;;;;5077258;28;20051;-70
2022/06/13 03:04:36;;;;;;;25.08;4.10;;;13.60;99.90;;;;;;5066876;28;20045;-73
2022/06/13 03:07:19;;;;;;;11.85;3.55;;;13.60;99.90;;;;;;5074212;28;20369;-70
2022/06/13 03:10:04;;;;;;;7.88;3.65;;;13.60;99.90;;;;;;5074194;28;20350;-69
2022/06/13 03:12:41;;;;;;;15.10;4.05;;;13.60;99.90;;;;;;5056532;28;20461;-71
2022/06/13 03:15:22;;;;;;;14.68;4.35;;;13.70;99.90;;;;;;5056277;28;20048;-69
2022/06/13 03:18:20;;;;;;;11.20;3.28;;;13.70;99.90;;;;;;5068639;28;20044;-70
2022/06/13 03:21:13;;;;;;;13.95;3.92;;;13.70;99.90;;;;;;5056355;28;20036;-71
2022/06/13 03:23:55;;;;;;;8.30;3.37;;;13.70;99.90;;;;;;5056828;28;20044;-72
2022/06/13 03:26:26;;;;;;;11.93;3.95;;;13.70;99.90;;;;;;5056216;28;20094;-71
2022/06/13 03:29:13;;;;;;;8.23;3.92;;;13.70;99.90;;;;;;5056340;28;20098;-70
2022/06/13 03:31:44;;;;;;;10.10;4.43;;;13.80;99.90;;;;;;5056199;28;20127;-71
2022/06/13 03:34:28;;;;;;;8.75;2.88;;;13.70;99.90;;;;;;5069850;28;20507;-70
2022/06/13 03:37:17;;;;;;;7.30;3.30;;;13.80;99.90;;;;;;5058943;28;20072;-70
2022/06/13 03:39:42;;;;;;;10.50;3.53;;;13.70;99.90;;;;;;5077773;28;20051;-69
2022/06/13 03:42:16;;;;;;;8.07;3.92;;;13.80;99.90;;;;;;5060158;28;20460;-72
2022/06/13 03:45:16;;;;;;;8.45;3.53;;;13.80;99.90;;;;;;5060065;28;20054;-70
2022/06/13 03:47:44;;;;;;;13.48;3.50;;;13.80;99.90;;;;;;5075009;28;20048;-70
2022/06/13 03:50:29;;;;;;;10.75;2.83;;;13.80;99.90;;;;;;5098013;28;20031;-71
2022/06/13 03:53:18;;;;;;;11.95;3.47;;;13.90;99.90;;;;;;5080352;28;20123;-70
2022/06/13 03:55:52;;;;;;;9.23;3.08;;;13.90;99.90;;;;;;5062229;28;20136;-70
2022/06/13 03:58:54;;;;;;;8.88;2.60;;;13.90;99.90;;;;;;5079981;28;20051;-71
2022/06/13 04:01:31;;;;;;;12.27;3.42;;;14.00;99.90;;;;;;5035043;28;20092;-69
2022/06/13 04:04:00;;;;;;;7.78;2.70;;;14.00;99.90;;;;;;5028137;28;20058;-70
2022/06/13 04:06:41;;;;;;;8.98;2.78;;;14.10;99.90;;;;;;5007003;28;20128;-71
2022/06/13 04:09:19;;;;;;;11.20;3.90;;;14.10;99.90;;;;;;4998749;28;20049;-72
2022/06/13 04:11:53;;;;;;;9.15;3.42;;;14.10;99.90;;;;;;4999078;28;20057;-70
2022/06/13 04:14:46;;;;;;;5.88;2.50;;;14.10;99.90;;;;;;5015060;28;20106;-70
2022/06/13 04:17:15;;;;;;;6.95;2.92;;;14.10;99.90;;;;;;5015377;28;20066;-71
2022/06/13 04:19:59;;;;;;;8.15;2.60;;;14.10;99.90;;;;;;5014645;28;20057;-70
2022/06/13 04:22:39;;;;;;;5.00;2.42;;;14.20;99.90;;;;;;5014973;28;20053;-70
2022/06/13 04:25:31;;;;;;;10.60;3.25;;;14.10;99.90;;;;;;5015156;28;20052;-70
2022/06/13 04:28:09;;;;;;;12.32;3.33;;;14.10;99.90;;;;;;4998711;28;20053;-70
2022/06/13 04:30:36;;;;;;;9.98;3.58;;;14.20;99.90;;;;;;5014878;28;20045;-71
2022/06/13 04:33:14;;;;;;;17.88;3.08;;;14.20;99.90;;;;;;5046995;28;20110;-71
2022/06/13 04:35:41;;;;;;;9.88;2.78;;;14.20;99.90;;;;;;5076839;28;20033;-71
2022/06/13 04:38:11;;;;;;;5.95;2.38;;;14.30;99.90;;;;;;5061363;28;20460;-72
2022/06/13 04:40:40;;;;;;;5.43;2.55;;;14.30;99.90;;;;;;5095535;28;20125;-70
2022/06/13 04:43:11;;;;;;;10.23;2.75;;;14.30;99.90;;;;;;5096407;28;20044;-71
2022/06/13 04:45:58;;;;;;;10.82;3.15;;;14.40;99.90;;;;;;5079387;28;20051;-71
2022/06/13 04:48:25;;;;;;;9.35;3.20;;;14.40;99.90;;;;;;5078537;28;20052;-71
2022/06/13 04:50:57;;;;;;;7.72;2.55;;;14.50;99.90;;;;;;5078737;28;20184;-70
2022/06/13 04:53:38;;;;;;;10.43;2.88;;;14.60;99.90;;;;;;5074142;28;20623;-72
2022/06/13 04:56:04;;;;;;;9.73;2.40;;;14.60;99.90;;;;;;5058202;28;20385;-70
2022/06/13 04:58:36;;;;;;;5.60;2.38;;;14.60;99.90;;;;;;5041927;28;20040;-71
2022/06/13 05:01:30;;;;;;;4.93;2.00;;;14.60;99.90;;;;;;5075881;28;20105;-72
2022/06/13 05:03:59;;;;;;;8.15;2.13;;;14.70;99.90;;;;;;5058292;28;20131;-71
2022/06/13 05:06:38;;;;;;;2.90;1.45;;;14.80;99.90;;;;;;5058029;28;20057;-72
2022/06/13 05:09:12;;;;;;;7.28;2.55;;;14.90;99.90;;;;;;5058305;28;20040;-72
2022/06/13 05:12:04;;;;;;;4.00;1.75;;;15.30;99.90;;;;;;5075584;28;20090;-71
2022/06/13 05:14:49;;;;;;;4.60;1.92;;;16.20;99.90;;;;;;5057793;28;20044;-71
2022/06/13 05:17:40;;;;;;;9.35;2.33;;;17.20;99.90;;;;;;5057321;28;20052;-70
2022/06/13 05:20:15;;;;;;;5.43;1.95;;;17.40;99.90;;;;;;5075633;28;20049;-71
2022/06/13 05:23:01;;;;;;;5.75;2.35;;;17.20;99.90;;;;;;5075580;28;20033;-70
2022/06/13 05:25:46;;;;;;;9.25;2.10;;;16.90;99.90;;;;;;5057749;28;20068;-71
2022/06/13 05:28:15;;;;;;;6.80;1.20;;;16.40;99.90;;;;;;5058128;28;20113;-71
2022/06/13 05:30:43;;;;;;;2.83;1.10;;;16.10;99.90;;;;;;5075491;28;20044;-70
2022/06/13 05:33:14;;;;;;;3.15;1.17;;;15.70;99.90;;;;;;5058355;28;20045;-71
2022/06/13 05:35:47;;;;;;;3.90;0.90;;;15.50;99.90;;;;;;5089393;28;20055;-72
2022/06/13 05:38:35;;;;;;;1.60;1.00;;;15.30;99.90;;;;;;5057597;28;20459;-71
2022/06/13 05:41:01;;;;;;;5.18;1.10;;;15.00;99.90;;;;;;5075419;28;20478;-70
2022/06/13 05:43:26;;;;;;;7.03;1.52;;;15.10;99.90;;;;;;5057577;28;20083;-71
2022/06/13 05:45:52;;;;;;;3.20;1.10;;;15.20;99.90;;;;;;5057631;28;20049;-70
2022/06/13 05:48:21;;;;;;;1.63;0.95;;;16.20;99.90;;;;;;5075462;28;20040;-71
2022/06/13 05:50:47;;;;;;;4.78;0.90;;;17.10;99.90;;;;;;5076756;28;20051;-72
2022/06/13 05:53:16;;;;;;;3.53;0.70;;;17.70;99.90;;;;;;5073401;28;20190;-71
2022/06/13 05:55:42;;;;;;;2.47;1.50;;;18.40;99.90;;;;;;5075322;28;20041;-70
2022/06/13 05:58:13;;;;;;;1.10;0.77;;;19.20;99.90;;;;;;5075059;28;20041;-70
2022/06/13 06:00:46;;;;;;;0.93;0.60;;;20.60;99.90;;;;;;5056349;28;20463;-70
2022/06/13 06:03:12;;;;;;;0.73;0.60;;;21.80;99.90;;;;;;5057292;28;20113;-71
2022/06/13 06:05:41;;;;;;;2.30;0.70;;;22.70;99.90;;;;;;5074394;28;20044;-70
2022/06/13 06:08:15;;;;;;;1.00;0.50;;;23.20;98.70;;;;;;5057032;28;20513;-70
2022/06/13 06:10:42;;;;;;;1.70;0.73;;;23.60;98.10;;;;;;5057005;28;20123;-71
2022/06/13 06:13:12;;;;;;;3.95;0.80;;;24.00;96.00;;;;;;5074978;28;20175;-70
2022/06/13 06:15:42;;;;;;;1.33;0.60;;;24.40;95.20;;;;;;5057051;28;20040;-71
2022/06/13 06:18:11;;;;;;;2.17;0.50;;;25.10;96.10;;;;;;5074982;28;20435;-71
2022/06/13 06:20:40;;;;;;;0.95;0.57;;;25.60;94.20;;;;;;5078583;28;20079;-72
2022/06/13 06:23:10;;;;;;;2.17;0.85;;;25.50;93.90;;;;;;5077133;28;20448;-70
2022/06/13 06:25:36;;;;;;;2.40;0.90;;;24.80;94.10;;;;;;5058543;28;20523;-71
2022/06/13 06:28:03;;;;;;;3.63;0.80;;;25.00;95.40;;;;;;5074916;28;20044;-71
2022/06/13 06:30:29;;;;;;;3.20;0.90;;;25.50;93.30;;;;;;5074809;28;20033;-70
2022/06/13 06:32:56;;;;;;;1.85;0.60;;;25.80;91.60;;;;;;5056924;28;20041;-70
2022/06/13 06:35:27;;;;;;;1.50;0.57;;;25.80;93.00;;;;;;5057194;28;20052;-70
2022/06/13 06:37:53;;;;;;;0.63;0.50;;;26.20;92.70;;;;;;5074602;28;20086;-70
2022/06/13 06:40:24;;;;;;;3.90;0.75;;;25.90;91.20;;;;;;5069670;28;20036;-71
2022/06/13 06:42:50;;;;;;;2.63;0.65;;;25.60;91.40;;;;;;5074642;28;20068;-71
2022/06/13 06:45:17;;;;;;;2.22;0.55;;;25.10;91.90;;;;;;5056820;28;20071;-71
2022/06/13 06:47:43;;;;;;;4.07;1.15;;;24.20;90.80;;;;;;5074725;28;20048;-69
2022/06/13 06:50:24;;;;;;;3.25;0.70;;;23.10;92.20;;;;;;5056437;28;20464;-71
2022/06/13 06:52:50;;;;;;;2.60;1.00;;;22.10;94.80;;;;;;5040594;28;20048;-70
2022/06/13 07:00:50;;;;;;;2.08;0.70;;;20.60;97.90;;;;;;5056431;28;20049;-70
2022/06/13 07:03:16;;;;;;;2.28;0.70;;;20.40;98.10;;;;;;5056975;28;20056;-70
2022/06/13 07:05:43;;;;;;;2.28;0.80;;;20.60;99.90;;;;;;5056648;28;20480;-70
2022/06/13 07:08:08;;;;;;;2.25;1.00;;;20.40;99.00;;;;;;5074095;28;20051;-71
2022/06/13 07:10:34;;;;;;;2.78;1.02;;;20.60;99.90;;;;;;5057807;28;20052;-71
2022/06/13 07:13:00;;;;;;;2.60;0.80;;;21.50;99.90;;;;;;5078367;28;20059;-71
2022/06/13 07:15:26;;;;;;;2.95;0.80;;;22.70;97.90;;;;;;5077684;28;20041;-69
2022/06/13 07:17:51;;;;;;;5.38;1.25;;;23.50;96.10;;;;;;5078055;28;20044;-70
2022/06/13 07:20:17;;;;;;;5.93;0.98;;;24.60;96.00;;;;;;5060298;28;20048;-70
2022/06/13 07:22:49;;;;;;;4.10;1.23;;;24.70;93.50;;;;;;5077886;28;20109;-71
2022/06/13 07:25:17;;;;;;;3.55;1.20;;;24.50;95.00;;;;;;5078179;28;20040;-71
2022/06/13 07:27:43;;;;;;;3.65;1.05;;;24.80;92.90;;;;;;5077771;28;20055;-69
2022/06/13 07:30:10;;;;;;;4.82;1.20;;;24.40;93.60;;;;;;5060929;28;20048;-70
2022/06/13 07:32:36;;;;;;;4.40;1.05;;;23.30;94.90;;;;;;5077483;28;20037;-70
2022/06/13 07:35:03;;;;;;;2.10;0.70;;;22.40;96.80;;;;;;5060218;28;20118;-70
2022/06/13 07:40:12;;;;;;;2.33;0.68;;;20.30;98.30;;;;;;5079060;28;20375;-70
2022/06/13 07:42:43;;;;;;;1.38;0.63;;;19.70;99.90;;;;;;5079610;28;20044;-69
2022/06/13 07:45:16;;;;;;;4.07;1.02;;;19.20;99.90;;;;;;5080198;28;20084;-70
2022/06/13 07:47:42;;;;;;;;;;;19.10;99.90;;;;;;5098375;28;20040;-69
2022/06/13 07:50:14;;;;;;;4.10;1.40;;;19.50;99.90;;;;;;5079799;28;19973;-69
2022/06/13 07:52:39;;;;;;;5.18;1.23;;;21.20;99.90;;;;;;5078696;28;20048;-70
2022/06/13 07:55:06;;;;;;;4.15;1.25;;;21.90;99.90;;;;;;5076859;28;20110;-69
2022/06/13 07:57:32;;;;;;;2.47;1.08;;;21.40;99.90;;;;;;5077304;28;20094;-70
2022/06/13 07:59:57;;;;;;;3.08;1.23;;;20.70;99.90;;;;;;5059958;28;20127;-70
2022/06/13 08:02:32;;;;;;;5.43;1.40;;;20.10;99.90;;;;;;5059718;28;20090;-71
2022/06/13 08:04:58;;;;;;;5.18;1.17;;;19.60;99.90;;;;;;5059296;28;20049;-70
2022/06/13 08:07:23;;;;;;;1.30;0.70;;;19.20;99.90;;;;;;5059469;28;20563;-71
2022/06/13 08:09:49;;;;;;;6.25;1.55;;;18.90;99.90;;;;;;5074062;28;20037;-70
2022/06/13 08:12:17;;;;;;;3.45;1.15;;;18.60;99.90;;;;;;5077093;28;20360;-70
2022/06/13 08:14:47;;;;;;;3.10;1.00;;;18.40;99.90;;;;;;5059411;28;20055;-70
2022/06/13 08:17:18;;;;;;;23.08;1.65;;;18.40;99.90;;;;;;5077073;28;20040;-70
2022/06/13 08:19:44;;;;;;;5.80;1.83;;;18.10;99.90;;;;;;5058981;28;20040;-70
2022/06/13 08:22:09;;;;;;;4.35;1.67;;;18.80;99.90;;;;;;5058690;28;20051;-71
2022/06/13 08:24:35;;;;;;;2.80;1.30;;;19.50;99.90;;;;;;5074996;28;20040;-70
2022/06/13 08:27:01;;;;;;;4.40;1.20;;;19.20;99.90;;;;;;5079389;28;20361;-70
2022/06/13 08:29:26;;;;;;;4.32;1.02;;;19.10;99.90;;;;;;5079157;28;20044;-71
2022/06/13 08:31:52;;;;;;;3.38;1.55;;;18.80;99.90;;;;;;5079552;28;20044;-71
2022/06/13 08:34:21;;;;;;;2.03;0.82;;;18.50;99.90;;;;;;5079409;28;20426;-71
2022/06/13 08:36:47;;;;;;;4.72;1.15;;;18.90;99.90;;;;;;5079064;28;20043;-71
2022/06/13 08:39:13;;;;;;;2.78;1.20;;;19.90;99.90;;;;;;5061917;28;20040;-71
2022/06/13 08:42:01;;;;;;;3.05;0.90;;;21.00;99.90;;;;;;5074941;28;20117;-71
2022/06/13 08:44:41;;;;;;;3.17;0.90;;;22.20;99.90;;;;;;5058771;28;20488;-71
2022/06/13 08:47:15;;;;;;;5.60;0.90;;;22.40;99.90;;;;;;5058853;28;20044;-71
2022/06/13 08:49:44;;;;;;;7.43;1.70;;;22.40;99.90;;;;;;5058534;28;20040;-71
2022/06/13 08:52:29;;;;;;;2.58;0.75;;;22.40;99.90;;;;;;5076259;28;20047;-71
2022/06/13 08:55:02;;;;;;;3.03;1.08;;;22.70;99.90;;;;;;5049189;28;20055;-71
2022/06/13 08:57:31;;;;;;;1.55;0.68;;;23.10;98.80;;;;;;5058300;28;20037;-70
2022/06/13 09:00:15;;;;;;;1.58;0.85;;;23.50;97.80;;;;;;5058608;28;20051;-70
2022/06/13 09:02:55;;;;;;;3.10;0.95;;;23.00;96.50;;;;;;5041617;28;20052;-71
2022/06/13 09:05:33;;;;;;;2.22;0.60;;;23.20;96.30;;;;;;5076093;28;20036;-72
2022/06/13 09:08:34;;;;;;;3.03;0.43;;;22.50;92.90;;;;;;5058122;28;20120;-71
2022/06/13 09:11:07;;;;;;;3.20;0.88;;;21.80;96.10;;;;;;4955430;28;20063;-71
2022/06/13 09:13:43;;;;;;;3.15;1.02;;;22.30;97.40;;;;;;5022656;28;20072;-71
2022/06/13 09:16:21;;;;;;;4.10;0.60;;;22.60;95.00;;;;;;5055631;28;20131;-71
2022/06/13 09:19:03;;;;;;;3.90;0.90;;;23.00;94.50;;;;;;5038598;28;20045;-71
2022/06/13 09:21:39;;;;;;;4.13;0.73;;;23.50;97.30;;;;;;5054372;28;20111;-71
2022/06/13 09:24:23;;;;;;;4.82;0.75;;;23.90;94.70;;;;;;5055792;28;20361;-71
2022/06/13 09:27:02;;;;;;;2.83;0.88;;;23.40;93.90;;;;;;5037261;28;20122;-71
2022/06/13 09:29:38;;;;;;;3.00;0.50;;;22.30;91.00;;;;;;5037829;28;20120;-71
2022/06/13 09:32:41;;;;;;;2.17;0.60;;;21.40;92.80;;;;;;5054993;28;20114;-71
2022/06/13 09:35:23;;;;;;;3.08;0.93;;;20.70;94.30;;;;;;4997408;28;20457;-72
2022/06/13 09:37:59;;;;;;;3.47;0.80;;;20.70;95.20;;;;;;5037742;28;20063;-71
2022/06/13 09:41:04;;;;;;;3.90;1.02;;;20.60;97.20;;;;;;5037946;28;20059;-71
2022/06/13 09:44:10;;;;;;;5.53;1.58;;;20.20;99.90;;;;;;5055312;28;20320;-71
2022/06/13 09:46:49;;;;;;;2.00;0.80;;;19.90;98.50;;;;;;5054903;28;20110;-70
2022/06/13 09:49:36;;;;;;;3.80;1.45;;;19.40;98.00;;;;;;5037436;28;20049;-72
2022/06/13 09:52:14;;;;;;;2.50;0.93;;;19.10;98.60;;;;;;5037443;28;20080;-70
2022/06/13 09:55:05;;;;;;;1.80;0.85;;;18.90;98.60;;;;;;5060366;28;20052;-70
2022/06/13 09:57:43;;;;;;;3.25;1.25;;;18.50;97.50;;;;;;5095508;28;20083;-72
2022/06/13 10:00:45;;;;;;;3.92;1.10;;;18.60;99.90;;;;;;5095194;28;20360;-70
2022/06/13 10:03:23;;;;;;;4.28;1.35;;;18.60;99.90;;;;;;5064186;28;20079;-71
2022/06/13 10:06:14;;;;;;;3.63;1.02;;;19.00;99.90;;;;;;5095383;28;20469;-70
2022/06/13 10:09:03;;;;;;;3.35;1.48;;;19.60;99.90;;;;;;5074846;28;20047;-71
2022/06/13 10:11:42;;;;;;;4.68;0.75;;;20.30;99.90;;;;;;5037205;28;20056;-71
2022/06/13 10:14:35;;;;;;;4.82;1.20;;;20.30;99.70;;;;;;5057416;28;20534;-71
2022/06/13 10:17:24;;;;;;;5.60;1.20;;;20.50;99.90;;;;;;5066049;28;20045;-71
2022/06/13 10:20:18;;;;;;;4.05;1.02;;;20.50;99.90;;;;;;5057144;28;20044;-71
2022/06/13 10:23:22;;;;;;;4.30;0.90;;;20.10;99.10;;;;;;5056983;28;20076;-71
2022/06/13 10:26:17;;;;;;;2.67;1.23;;;20.00;99.00;;;;;;5039702;28;20189;-70
2022/06/13 10:29:17;;;;;;;5.55;1.38;;;20.30;99.90;;;;;;5003557;28;20044;-70
2022/06/13 10:32:02;;;;;;;5.72;1.50;;;20.70;99.50;;;;;;5068610;28;20059;-71
2022/06/13 10:34:37;;;;;;;3.95;0.90;;;20.70;99.90;;;;;;5075429;28;20067;-69
2022/06/13 10:37:21;;;;;;;6.40;0.82;;;20.40;97.80;;;;;;5074951;28;20040;-69
2022/06/13 10:39:50;;;;;;;6.80;1.60;;;20.00;99.30;;;;;;5057143;28;20056;-69
2022/06/13 10:42:20;;;;;;;3.65;1.25;;;19.80;99.90;;;;;;5074721;28;20123;-70
2022/06/13 10:44:46;;;;;;;9.43;1.20;;;19.80;99.90;;;;;;5074643;28;20455;-70
2022/06/13 10:47:23;;;;;;;3.70;1.10;;;19.70;98.40;;;;;;5061283;28;20049;-69
2022/06/13 10:49:56;;;;;;;5.03;1.10;;;19.60;99.00;;;;;;5078777;28;20443;-69
2022/06/13 10:52:30;;;;;;;6.10;1.98;;;19.70;99.90;;;;;;5061142;28;20063;-69
2022/06/13 10:54:56;;;;;;;;;;;19.30;99.90;;;;;;5044696;28;20059;-69
2022/06/13 10:57:32;;;;;;;6.88;1.58;;;19.20;99.90;;;;;;5058642;28;19920;-69
2022/06/13 11:00:21;;;;;;;5.45;1.17;;;19.20;99.90;;;;;;5040927;28;20048;-69
2022/06/13 11:02:47;;;;;;;7.43;1.50;;;19.10;99.90;;;;;;5060658;28;20411;-69
2022/06/13 11:05:19;;;;;;;4.55;1.42;;;19.30;99.90;;;;;;5060841;28;20083;-69
2022/06/13 11:08:00;;;;;;;4.60;1.35;;;19.10;99.90;;;;;;5078540;28;20087;-69
2022/06/13 11:10:35;;;;;;;7.32;1.98;;;19.20;99.90;;;;;;5060784;28;20048;-69
2022/06/13 11:13:04;;;;;;;4.72;1.00;;;19.40;99.90;;;;;;5060449;28;20106;-69
2022/06/13 11:24:23;;;;;;;7.93;1.30;;;18.90;99.90;;;;;;5060309;28;20173;-68
2022/06/13 11:29:35;;;;;;;3.35;1.35;;;19.20;99.10;;;;;;5071305;28;20462;-69
2022/06/13 11:32:05;;;;;;;4.15;1.15;;;19.10;99.70;;;;;;5039901;28;20049;-69
2022/06/13 11:34:34;;;;;;;6.28;1.42;;;19.20;99.90;;;;;;5040252;28;20048;-69
2022/06/13 11:37:25;;;;;;;4.10;1.30;;;19.20;99.50;;;;;;5040435;28;20063;-69
2022/06/13 11:39:53;;;;;;;6.20;1.52;;;19.30;99.90;;;;;;5039407;28;20469;-69
2022/06/13 11:42:24;;;;;;;9.98;1.67;;;19.30;99.90;;;;;;5039681;28;20068;-69
2022/06/13 11:44:58;;;;;;;6.38;2.00;;;19.20;99.50;;;;;;5067512;28;20144;-68
2022/06/13 11:47:24;;;;;;;6.07;1.60;;;19.00;99.20;;;;;;5077547;28;20460;-69
2022/06/13 11:49:55;;;;;;;4.50;1.35;;;18.90;99.60;;;;;;5059707;28;20044;-69
2022/06/13 11:55:27;;;;;;;3.47;1.48;;;19.20;99.90;;;;;;5096093;28;20044;-69
2022/06/13 11:57:56;;;;;;;5.75;2.13;;;19.30;99.90;;;;;;5080171;28;20044;-69
2022/06/13 12:00:51;;;;;;;6.15;1.20;;;19.20;99.10;;;;;;5074261;28;20435;-69
2022/06/13 12:03:20;;;;;;;4.05;1.48;;;19.20;98.70;;;;;;5066585;28;20407;-69
2022/06/13 12:06:08;;;;;;;3.35;1.40;;;19.20;99.50;;;;;;5059694;28;20048;-69
2022/06/13 12:08:34;;;;;;;6.57;1.20;;;19.20;99.00;;;;;;5058718;28;20061;-69
2022/06/13 12:11:05;;;;;;;3.25;0.82;;;19.30;98.70;;;;;;5077378;28;20047;-69
2022/06/13 12:13:34;;;;;;;3.58;1.27;;;19.50;99.60;;;;;;5076884;28;20127;-69
2022/06/13 12:16:18;;;;;;;7.40;1.27;;;19.70;99.30;;;;;;5076700;28;20127;-69
2022/06/13 12:19:03;;;;;;;2.80;1.10;;;19.90;97.50;;;;;;5059847;28;20065;-69
2022/06/13 12:21:48;;;;;;;6.18;1.50;;;19.80;97.50;;;;;;5059596;28;20115;-69
2022/06/13 12:24:48;;;;;;;4.65;1.25;;;19.60;98.10;;;;;;5076902;28;20045;-69
2022/06/13 12:27:20;;;;;;;6.78;1.60;;;19.60;98.50;;;;;;5059611;28;20063;-69
2022/06/13 12:30:13;;;;;;;4.20;1.23;;;19.60;97.90;;;;;;5076691;28;20063;-70
2022/06/13 12:32:51;;;;;;;8.13;2.03;;;19.50;98.70;;;;;;5059109;28;20052;-69
2022/06/13 12:35:52;;;;;;;3.53;1.02;;;19.40;98.40;;;;;;5076850;28;20114;-69
2022/06/13 12:38:28;;;;;;;7.15;1.38;;;19.50;99.00;;;;;;5076743;28;20036;-69
2022/06/13 12:41:12;;;;;;;4.15;0.93;;;19.50;99.10;;;;;;5076358;28;20099;-69
2022/06/13 12:44:15;;;;;;;4.07;1.42;;;19.50;98.30;;;;;;5058994;28;20040;-69
2022/06/13 12:47:17;;;;;;;3.85;1.30;;;19.40;99.00;;;;;;5059062;28;20080;-69
2022/06/13 12:50:14;;;;;;;5.43;1.08;;;19.50;98.70;;;;;;5076261;28;20530;-69
2022/06/13 12:53:06;;;;;;;5.35;1.50;;;19.60;98.00;;;;;;5076458;28;20040;-69
2022/06/13 12:55:53;;;;;;;8.77;2.28;;;19.60;98.30;;;;;;5041592;28;20135;-69
2022/06/13 12:58:30;;;;;;;1.98;0.80;;;19.70;99.10;;;;;;5058341;28;20087;-69
2022/06/13 13:01:12;;;;;;;6.95;1.77;;;19.70;98.00;;;;;;5058817;28;20053;-69
2022/06/13 13:03:56;;;;;;;4.07;1.15;;;19.70;97.60;;;;;;5058534;28;20439;-69
2022/06/13 13:06:40;;;;;;;3.45;1.17;;;19.50;97.50;;;;;;5058174;28;20059;-69
2022/06/13 13:09:39;;;;;;;8.45;1.50;;;19.30;98.10;;;;;;5058127;28;20084;-69
2022/06/13 13:12:32;;;;;;;5.25;1.25;;;19.20;98.10;;;;;;5042615;28;20044;-69
2022/06/13 13:15:01;;;;;;;5.25;1.20;;;19.40;98.40;;;;;;5056270;28;20049;-69
2022/06/13 13:17:53;;;;;;;7.13;1.35;;;19.40;98.70;;;;;;5058166;28;20222;-69
2022/06/13 13:20:36;;;;;;;5.20;1.30;;;19.50;97.10;;;;;;5070588;28;20052;-69
2022/06/13 13:23:26;;;;;;;2.95;1.30;;;19.50;97.20;;;;;;5058551;28;20523;-69
2022/06/13 13:25:55;;;;;;;3.78;1.08;;;19.90;98.20;;;;;;5058069;28;20419;-69
2022/06/13 13:28:37;;;;;;;2.85;0.68;;;20.10;98.00;;;;;;5082060;28;20047;-70
2022/06/13 13:31:17;;;;;;;2.13;0.77;;;19.90;97.50;;;;;;5073276;28;20067;-69
2022/06/13 13:34:18;;;;;;;8.35;1.63;;;20.00;97.20;;;;;;5075683;28;20062;-69
2022/06/13 13:37:16;;;;;;;3.00;1.15;;;20.30;98.20;;;;;;5057656;28;20048;-68
2022/06/13 13:40:02;;;;;;;2.55;0.77;;;20.20;96.70;;;;;;5075263;28;20040;-69
2022/06/13 13:42:39;;;;;;;5.78;1.08;;;20.00;96.70;;;;;;5058018;28;20052;-69
2022/06/13 13:45:21;;;;;;;4.60;1.15;;;19.90;96.30;;;;;;5065124;28;20048;-69
2022/06/13 13:47:51;;;;;;;1.65;0.68;;;20.00;95.90;;;;;;5057983;28;20114;-69
2022/06/13 13:50:21;;;;;;;1.20;0.50;;;20.00;96.20;;;;;;5075286;28;20059;-69
2022/06/13 13:52:52;;;;;;;3.90;0.80;;;19.80;95.00;;;;;;5057594;28;20090;-68
2022/06/13 13:55:27;;;;;;;2.58;0.77;;;19.70;96.30;;;;;;5057561;28;20476;-69
2022/06/13 13:58:02;;;;;;;1.98;0.77;;;19.60;96.20;;;;;;5060283;28;20152;-69
2022/06/13 14:01:04;;;;;;;2.03;0.80;;;19.50;96.40;;;;;;5095312;28;20048;-69